Da Nang International Airport
VVDN : now visible

Airfield :











YOU CAN JOIN US ON...

 
LOGIN :

Register | Disclaimer

   EN    FR    IT 

 









Legend :    VFR   Marginal VFR   IFR   Intensive IFR   Very Intensive IFR
Visi :
Ceiling :
>= 8 km
>= 3000ft
5 to 8 km
1000 to 3000 ft
1500m to 5 km
500 to 1000 ft
800 to 1500m
200 to 500 ft
< 800m
< 200 ft
Symbols :   Thunderstorms  Fog  Heavy snow  Heavy precipitations  Wind > 20 kt






- Airport Elevation : 33 ft
- IATA code : DAD


VVDN - Da Nang International

CURRENT METAR :
  • 020230Z 04008G19KT 8000 SCT010 FEW017TCU BKN050 26/23 Q1015 NOSIG

EXPIRED METARs :
  • 020200Z 04009KT 8000 SCT010 FEW017TCU BKN040 26/23 Q1015 NOSIG
  • 020130Z 04008KT 010V080 8000 -RA SCT010 FEW017TCU BKN040 26/23 Q1014 TEMPO 4000 RA
  • 020100Z 03009KT 8000 -RA SCT010 FEW017TCU BKN040 26/23 Q1014 TEMPO 4000 RA
  • 020030Z 05010KT 9999 -RA SCT010 FEW017TCU BKN040 25/23 Q1014 TEMPO 4000 RA
  • 020000Z 04009KT 6000 -RA SCT010 FEW017TCU BKN040 25/23 Q1013 TEMPO 4000 RA

TAF TAF VVDN
Valid from the 02 at 00:00 until the 03 at 00:00 UTC


012300Z 0200/0224 03014KT 8000 SCT012 BKN050
TEMPO 0200/0206 2500 +SHRA SCT010 FEW015CB BKN050
TEMPO 0206/0208 4000 SHRA SCT012 FEW015CB BKN050
TEMPO 0208/0214 2500 +SHRA SCT010 FEW015CB BKN050
TEMPO 0214/0224 3500 RA BR
VVTS FIR / Asia



MET'MAP, your aeronautical weather chart ! - Copyright ORBIFLY December 2007 - Disclaimer

ORBIFLY MET'MAP TEAM :

Programming & Development : Alexandra Zaïnal
Original concept : Baudouin d'Aumeries
Technical & hardware support : Manuel Goepfert
Assistance : Marc-Olivier Méhu




SOURCES & CREDITS :

   NOAA       Earth
Advisory